Time;durP1;ratioP1;P1;durP2;ratioP2;P2;SDS_P1;SDS_P2;PMS_P1;PMS_P2;Temp;Humidity;BMP_temperature;BMP_pressure;BME280_temperature;BME280_humidity;BME280_pressure;Samples;Min_cycle;Max_cycle;Signal;HPM_P1;HPM_P2
2021/03/24 00:00:32;;;;;;;12.33;8.77;;;;;;;4.93;63.66;96405.97;5012267;28;20230;-84
2021/03/24 00:02:59;;;;;;;13.53;9.07;;;;;;;4.97;63.38;96402.25;5013402;28;20203;-84
2021/03/24 00:05:28;;;;;;;11.20;8.37;;;;;;;5.00;63.41;96407.09;5012788;28;20229;-84
2021/03/24 00:07:54;;;;;;;13.27;8.90;;;;;;;5.01;63.50;96411.25;5013365;28;20657;-84
2021/03/24 00:10:23;;;;;;;10.97;8.73;;;;;;;4.94;63.73;96406.78;5013085;28;20222;-84
2021/03/24 00:12:50;;;;;;;10.80;8.47;;;;;;;4.92;63.93;96403.53;5013306;28;20674;-84
2021/03/24 00:15:17;;;;;;;10.30;8.70;;;;;;;4.84;64.00;96404.13;5013603;28;20281;-84
2021/03/24 00:17:43;;;;;;;11.73;9.07;;;;;;;4.76;64.25;96399.63;4993258;28;20281;-83
2021/03/24 00:20:13;;;;;;;11.73;8.77;;;;;;;4.78;64.41;96395.22;5005056;28;20251;-84
2021/03/24 00:22:39;;;;;;;9.90;8.10;;;;;;;4.80;64.08;96398.47;5012740;28;20226;-84
2021/03/24 00:25:08;;;;;;;9.60;8.17;;;;;;;4.78;64.32;96394.41;5012314;28;20247;-84
2021/03/24 00:27:34;;;;;;;11.23;8.87;;;;;;;4.78;64.17;96386.78;5012252;28;20592;-83
2021/03/24 00:30:00;;;;;;;10.40;8.43;;;;;;;4.76;64.32;96394.53;5012840;28;20222;-83
2021/03/24 00:32:27;;;;;;;13.73;8.47;;;;;;;4.79;64.25;96393.50;5012342;28;20226;-82
2021/03/24 00:34:53;;;;;;;12.23;9.33;;;;;;;4.71;64.39;96394.09;5012772;28;20243;-84
2021/03/24 00:37:19;;;;;;;10.57;8.60;;;;;;;4.65;64.32;96388.63;5011988;28;20226;-83
2021/03/24 00:39:45;;;;;;;12.17;8.73;;;;;;;4.66;64.08;96392.81;5011866;28;20222;-81
2021/03/24 00:42:11;;;;;;;9.90;8.17;;;;;;;4.66;64.26;96385.16;5011651;28;20253;-80
2021/03/24 00:44:37;;;;;;;11.17;8.17;;;;;;;4.56;64.15;96377.44;5011174;28;20214;-82
2021/03/24 00:47:04;;;;;;;11.33;8.43;;;;;;;4.41;64.88;96386.28;5011405;28;20221;-82
2021/03/24 00:49:31;;;;;;;11.80;8.90;;;;;;;4.35;64.96;96381.66;5014972;28;20218;-82
2021/03/24 00:51:57;;;;;;;9.83;8.53;;;;;;;4.40;64.77;96375.28;5016253;28;20222;-83
2021/03/24 00:54:23;;;;;;;11.43;8.97;;;;;;;4.39;65.04;96371.09;5016370;28;20191;-79
2021/03/24 00:56:48;;;;;;;11.07;9.40;;;;;;;4.35;65.24;96374.81;5016347;28;20250;-79
2021/03/24 00:59:15;;;;;;;11.83;8.20;;;;;;;4.35;64.75;96379.91;5015670;28;20230;-81
2021/03/24 01:01:41;;;;;;;12.27;9.80;;;;;;;4.37;64.79;96378.06;5015553;28;20233;-82
2021/03/24 01:04:09;;;;;;;9.97;8.57;;;;;;;4.33;65.81;96368.22;5015248;28;20226;-81
2021/03/24 01:06:36;;;;;;;11.17;8.57;;;;;;;4.32;65.35;96362.28;5014905;28;20214;-83
2021/03/24 01:09:07;;;;;;;10.97;8.60;;;;;;;4.31;65.60;96360.69;5015900;28;20234;-84
2021/03/24 01:11:34;;;;;;;10.70;8.63;;;;;;;4.29;66.02;96359.97;4996115;28;20227;-82
2021/03/24 01:14:00;;;;;;;11.53;8.93;;;;;;;4.38;65.51;96356.72;5015921;28;20256;-84
2021/03/24 01:16:26;;;;;;;11.57;9.17;;;;;;;4.39;65.54;96357.53;5015047;28;20230;-82
2021/03/24 01:18:52;;;;;;;12.40;8.80;;;;;;;4.42;65.20;96360.66;5015807;28;20269;-83
2021/03/24 01:21:18;;;;;;;11.37;8.87;;;;;;;4.45;65.47;96359.59;5015513;28;20725;-84
2021/03/24 01:23:44;;;;;;;11.03;8.67;;;;;;;4.46;65.43;96363.78;5015185;28;20214;-84
2021/03/24 01:26:10;;;;;;;11.80;9.17;;;;;;;4.38;65.58;96366.94;5015717;28;20227;-83
2021/03/24 01:28:36;;;;;;;10.80;8.90;;;;;;;4.33;65.27;96360.56;5016785;28;20226;-83
2021/03/24 01:31:03;;;;;;;13.17;9.70;;;;;;;4.37;65.58;96346.66;5016002;28;20280;-83
2021/03/24 01:33:29;;;;;;;13.50;9.17;;;;;;;4.39;65.41;96355.00;5015922;28;20218;-83
2021/03/24 01:35:56;;;;;;;10.83;8.30;;;;;;;4.39;65.53;96355.00;5015192;28;20215;-82
2021/03/24 01:38:22;;;;;;;11.43;9.00;;;;;;;4.46;65.27;96356.94;5015433;28;20756;-81
2021/03/24 01:40:52;;;;;;;11.43;9.23;;;;;;;4.51;65.31;96359.13;5015313;28;20241;-83
2021/03/24 01:43:21;;;;;;;10.40;8.57;;;;;;;4.54;65.37;96352.97;5015369;28;20226;-82
2021/03/24 01:46:16;;;;;;;11.27;8.53;;;;;;;4.53;65.39;96353.91;5014153;28;20254;-84
2021/03/24 01:48:43;;;;;;;10.77;8.20;;;;;;;4.50;65.17;96355.75;5015310;28;20222;-82
2021/03/24 01:51:10;;;;;;;13.23;8.83;;;;;;;4.51;65.68;96351.47;5015413;28;20198;-83
2021/03/24 01:53:38;;;;;;;11.60;8.87;;;;;;;4.43;65.18;96351.25;5013418;28;20226;-82
2021/03/24 01:56:07;;;;;;;11.13;8.77;;;;;;;4.32;65.98;96344.44;5014097;28;20602;-84
2021/03/24 01:58:34;;;;;;;9.73;8.63;;;;;;;4.25;66.51;96352.69;5014347;28;20853;-84
2021/03/24 02:01:01;;;;;;;11.77;8.60;;;;;;;4.27;66.29;96341.44;5014350;28;20596;-82
2021/03/24 02:03:31;;;;;;;10.23;8.63;;;;;;;4.28;66.30;96345.63;5015187;28;20619;-83
2021/03/24 02:06:00;;;;;;;10.30;8.20;;;;;;;4.27;66.26;96343.19;5015783;28;20259;-82
2021/03/24 02:08:29;;;;;;;12.47;9.23;;;;;;;4.25;66.43;96345.84;5014795;28;20242;-84
2021/03/24 02:11:07;;;;;;;10.67;8.90;;;;;;;4.23;66.74;96336.72;5014305;28;20253;-82
2021/03/24 02:13:40;;;;;;;10.17;8.43;;;;;;;4.23;66.08;96339.28;5014584;28;20273;-82
2021/03/24 02:16:12;;;;;;;14.33;8.80;;;;;;;4.30;66.41;96340.41;5013813;28;20726;-80
2021/03/24 02:18:39;;;;;;;10.83;8.43;;;;;;;4.27;66.79;96341.44;5013992;28;20283;-82
2021/03/24 02:21:09;;;;;;;10.13;8.23;;;;;;;4.19;66.83;96346.34;5014622;28;20376;-84
2021/03/24 02:23:48;;;;;;;11.50;8.47;;;;;;;4.17;66.64;96335.44;5014305;28;20902;-84
2021/03/24 02:26:22;;;;;;;10.40;8.50;;;;;;;4.20;66.48;96342.06;5013645;28;20849;-84
2021/03/24 02:28:51;;;;;;;11.87;9.10;;;;;;;4.19;66.33;96336.16;5014650;28;20246;-80
2021/03/24 02:31:19;;;;;;;10.50;8.77;;;;;;;4.18;66.25;96342.16;5013321;28;20227;-80
2021/03/24 02:33:48;;;;;;;11.10;8.60;;;;;;;4.11;66.83;96341.81;5014311;28;20661;-80
2021/03/24 02:36:18;;;;;;;10.17;8.30;;;;;;;4.10;66.59;96340.19;5013843;28;20755;-83
2021/03/24 02:38:47;;;;;;;10.33;8.30;;;;;;;4.09;66.67;96340.31;5015130;28;20242;-83
2021/03/24 02:41:13;;;;;;;11.37;8.23;;;;;;;4.09;66.64;96341.13;5013704;28;20684;-84
2021/03/24 02:43:40;;;;;;;11.10;8.63;;;;;;;4.07;67.11;96345.53;5014319;28;20253;-83
2021/03/24 02:46:09;;;;;;;11.00;8.27;;;;;;;4.07;66.67;96342.16;5013807;28;20227;-84
2021/03/24 02:48:38;;;;;;;13.77;8.93;;;;;;;4.05;66.89;96338.94;5014447;28;20374;-84
2021/03/24 02:51:08;;;;;;;10.07;8.47;;;;;;;4.05;66.44;96344.03;5014312;28;20207;-84
2021/03/24 02:53:38;;;;;;;10.53;7.97;;;;;;;4.00;66.44;96343.59;5013956;28;20231;-83
2021/03/24 02:56:07;;;;;;;15.53;8.80;;;;;;;4.05;66.71;96339.75;5013614;28;20244;-83
2021/03/24 02:58:34;;;;;;;12.53;8.80;;;;;;;4.10;66.82;96347.03;5013885;28;20230;-82
2021/03/24 03:01:02;;;;;;;11.80;8.50;;;;;;;4.08;66.60;96352.25;5012226;28;20234;-80
2021/03/24 03:03:33;;;;;;;9.97;8.50;;;;;;;4.09;66.46;96346.22;5014088;28;20198;-85
2021/03/24 03:06:01;;;;;;;10.60;8.63;;;;;;;4.14;66.36;96339.03;5013407;28;20218;-82
2021/03/24 03:08:31;;;;;;;11.37;8.70;;;;;;;4.13;66.53;96344.25;5013688;28;20230;-82
2021/03/24 03:11:02;;;;;;;11.40;8.67;;;;;;;4.06;66.80;96343.91;5011639;28;20744;-80
2021/03/24 03:13:34;;;;;;;10.80;8.13;;;;;;;4.00;66.81;96338.50;5013733;28;20227;-82
2021/03/24 03:16:07;;;;;;;11.70;8.53;;;;;;;3.97;66.91;96347.19;5013242;28;20230;-81
2021/03/24 03:18:38;;;;;;;8.87;7.83;;;;;;;3.93;67.69;96352.63;5013522;28;20195;-83
2021/03/24 03:21:10;;;;;;;11.23;8.03;;;;;;;3.94;67.01;96341.50;5013351;28;20199;-84
2021/03/24 03:23:37;;;;;;;11.43;9.00;;;;;;;3.93;67.14;96347.53;5013293;28;20226;-81
2021/03/24 03:26:07;;;;;;;12.67;8.73;;;;;;;3.82;67.33;96348.34;5013637;28;20231;-83
2021/03/24 03:28:36;;;;;;;10.33;8.23;;;;;;;3.82;67.02;96350.91;5014139;28;20832;-84
2021/03/24 03:31:06;;;;;;;10.60;9.03;;;;;;;3.79;67.63;96357.03;5013358;28;20772;-81
2021/03/24 03:33:37;;;;;;;12.63;8.30;;;;;;;3.81;67.63;96355.19;5013544;28;20225;-80
2021/03/24 03:36:04;;;;;;;11.80;8.83;;;;;;;3.87;67.02;96356.44;5013790;28;20638;-81
2021/03/24 03:38:32;;;;;;;10.87;8.23;;;;;;;3.80;66.95;96353.56;5013176;28;20242;-83
2021/03/24 03:41:00;;;;;;;10.53;8.13;;;;;;;3.86;67.36;96364.19;4993062;28;20227;-82
2021/03/24 03:43:27;;;;;;;11.67;8.77;;;;;;;3.77;67.10;96358.88;4994030;28;20227;-80
2021/03/24 03:45:57;;;;;;;9.70;8.37;;;;;;;3.78;67.12;96352.03;5012651;28;20284;-84
2021/03/24 03:48:23;;;;;;;12.53;7.67;;;;;;;3.84;66.97;96350.78;5013620;28;20203;-80
2021/03/24 03:50:54;;;;;;;10.87;8.80;;;;;;;3.81;66.80;96357.72;5012730;28;20567;-84
2021/03/24 03:53:24;;;;;;;9.73;8.23;;;;;;;3.84;67.08;96361.78;5013384;28;20225;-82
2021/03/24 03:55:55;;;;;;;10.30;7.70;;;;;;;3.88;67.01;96365.69;5012922;28;20227;-80
2021/03/24 03:58:31;;;;;;;10.17;8.20;;;;;;;3.81;66.95;96357.72;5013275;28;20237;-84
2021/03/24 04:01:06;;;;;;;11.17;8.20;;;;;;;3.77;66.87;96361.41;5002414;28;20225;-81
2021/03/24 04:03:36;;;;;;;10.17;7.97;;;;;;;3.64;67.42;96359.91;5013331;28;20194;-83
2021/03/24 04:06:09;;;;;;;11.97;8.57;;;;;;;3.59;67.82;96369.63;5013539;28;20222;-81
2021/03/24 04:08:36;;;;;;;12.17;8.07;;;;;;;3.66;67.53;96363.13;5012358;28;20284;-80
2021/03/24 04:11:06;;;;;;;10.63;8.17;;;;;;;3.63;67.75;96371.84;5013308;28;20233;-82
2021/03/24 04:13:35;;;;;;;12.20;8.80;;;;;;;3.68;67.92;96379.13;5012779;28;20242;-84
2021/03/24 04:16:03;;;;;;;11.23;8.57;;;;;;;3.76;67.89;96372.53;5012304;28;20227;-82
2021/03/24 04:18:35;;;;;;;12.73;8.83;;;;;;;3.84;67.50;96377.06;5012797;28;20210;-79
2021/03/24 04:21:05;;;;;;;10.70;7.97;;;;;;;3.85;67.01;96373.56;4993470;28;20207;-82
2021/03/24 04:23:34;;;;;;;10.33;8.07;;;;;;;3.87;66.93;96373.44;4992464;28;20336;-82
2021/03/24 04:26:06;;;;;;;12.07;8.80;;;;;;;3.86;66.93;96382.81;5012498;28;20282;-82
2021/03/24 04:28:38;;;;;;;10.30;8.67;;;;;;;3.87;67.41;96370.91;5012826;28;20223;-83
2021/03/24 04:31:08;;;;;;;12.30;9.13;;;;;;;3.87;67.70;96366.63;5005353;28;20721;-83
2021/03/24 04:33:35;;;;;;;10.57;8.57;;;;;;;3.92;67.23;96372.19;5013091;28;20202;-84
2021/03/24 04:36:09;;;;;;;13.33;8.80;;;;;;;3.96;67.33;96367.66;5012725;28;20215;-82
2021/03/24 04:38:40;;;;;;;13.23;9.30;;;;;;;3.93;67.13;96373.00;5012025;28;20230;-82
2021/03/24 04:41:11;;;;;;;12.33;8.73;;;;;;;3.94;67.18;96369.53;4992537;28;20227;-82
2021/03/24 04:43:40;;;;;;;10.93;9.33;;;;;;;3.94;67.50;96377.16;5008171;28;20245;-82
2021/03/24 04:46:11;;;;;;;11.77;9.10;;;;;;;3.85;68.57;96382.97;5012253;28;20245;-83
2021/03/24 04:48:41;;;;;;;13.53;9.47;;;;;;;3.75;68.78;96373.47;4992596;28;20231;-82
2021/03/24 04:51:10;;;;;;;13.53;9.30;;;;;;;3.78;69.35;96375.78;4993838;28;20226;-79
2021/03/24 04:53:40;;;;;;;11.10;8.87;;;;;;;3.85;69.32;96376.09;5007115;28;20642;-81
2021/03/24 04:56:08;;;;;;;11.60;8.97;;;;;;;3.87;68.49;96376.81;5005842;28;20245;-82
2021/03/24 04:58:38;;;;;;;12.03;9.37;;;;;;;3.83;68.70;96367.00;4992871;28;20775;-81
2021/03/24 05:01:10;;;;;;;12.37;9.27;;;;;;;3.78;68.82;96373.22;5011287;28;20218;-83
2021/03/24 05:03:39;;;;;;;12.53;9.13;;;;;;;3.78;69.42;96380.06;5012217;28;20211;-84
2021/03/24 05:06:14;;;;;;;11.90;9.43;;;;;;;3.75;69.34;96388.75;5012632;28;20891;-82
2021/03/24 05:08:43;;;;;;;12.93;9.50;;;;;;;3.79;69.50;96384.22;5012260;28;20233;-82
2021/03/24 05:11:17;;;;;;;11.93;9.10;;;;;;;3.87;68.63;96376.00;5009748;28;20226;-83
2021/03/24 05:13:51;;;;;;;10.47;8.53;;;;;;;3.92;68.57;96386.66;5011606;28;20226;-84
2021/03/24 05:16:23;;;;;;;14.37;9.27;;;;;;;3.96;68.89;96385.50;5011952;28;20229;-81
2021/03/24 05:18:53;;;;;;;12.80;8.90;;;;;;;3.91;68.68;96383.28;5011897;28;20642;-84
2021/03/24 05:21:27;;;;;;;11.80;8.67;;;;;;;3.94;68.34;96377.97;5011415;28;20195;-79
2021/03/24 05:23:57;;;;;;;12.90;8.37;;;;;;;3.94;68.62;96383.06;5012131;28;20579;-81
2021/03/24 05:26:27;;;;;;;13.27;8.80;;;;;;;3.97;68.83;96382.84;5011771;28;20242;-81
2021/03/24 05:28:55;;;;;;;11.23;9.27;;;;;;;3.96;68.53;96385.50;4999352;28;20254;-83
2021/03/24 05:31:25;;;;;;;12.37;9.27;;;;;;;3.94;68.95;96398.34;5007492;28;20223;-84
2021/03/24 05:33:59;;;;;;;10.67;8.50;;;;;;;3.94;68.95;96388.16;5013058;28;20223;-81
2021/03/24 05:36:38;;;;;;;11.53;9.43;;;;;;;3.96;68.78;96393.16;5011385;28;20222;-80
2021/03/24 05:39:13;;;;;;;12.00;8.83;;;;;;;4.02;68.87;96395.25;5013066;28;20218;-83
2021/03/24 05:41:46;;;;;;;12.90;9.17;;;;;;;4.02;69.04;96385.06;5012168;28;20356;-82
2021/03/24 05:44:42;;;;;;;12.13;9.33;;;;;;;4.03;68.74;96390.03;5012920;28;20218;-80
2021/03/24 05:47:31;;;;;;;11.27;8.50;;;;;;;4.06;68.51;96388.97;5008032;28;20227;-84
2021/03/24 05:50:17;;;;;;;11.93;8.77;;;;;;;4.09;68.71;96393.81;5014098;28;20249;-80
2021/03/24 05:52:56;;;;;;;11.83;8.90;;;;;;;4.10;68.38;96392.91;5013735;28;20772;-83
2021/03/24 05:55:36;;;;;;;13.30;9.07;;;;;;;4.07;69.09;96393.13;5007156;28;20218;-84
2021/03/24 05:58:18;;;;;;;9.47;7.93;;;;;;;4.17;68.41;96399.16;5014324;28;20223;-83
2021/03/24 06:00:48;;;;;;;12.30;9.57;;;;;;;4.24;68.15;96399.50;5015577;28;20199;-82
2021/03/24 06:03:30;;;;;;;11.93;9.53;;;;;;;4.27;68.11;96405.16;5011468;28;20192;-79
2021/03/24 06:06:18;;;;;;;12.53;8.87;;;;;;;4.21;67.71;96404.84;5009140;28;20273;-83
2021/03/24 06:09:23;;;;;;;12.27;8.40;;;;;;;4.21;67.84;96402.28;5013936;28;20237;-84
2021/03/24 06:12:16;;;;;;;11.43;8.40;;;;;;;4.27;68.25;96412.00;4982814;28;20718;-83
2021/03/24 06:15:17;;;;;;;11.67;9.07;;;;;;;4.35;68.00;96407.13;5010726;28;20223;-83
2021/03/24 06:17:51;;;;;;;13.03;8.60;;;;;;;4.29;68.04;96407.59;5013771;28;20285;-84
2021/03/24 06:20:28;;;;;;;10.40;7.77;;;;;;;4.33;67.83;96401.34;5014332;28;20637;-82
2021/03/24 06:23:16;;;;;;;12.40;8.60;;;;;;;4.33;67.97;96399.59;5013916;28;20266;-83
2021/03/24 06:25:46;;;;;;;13.30;8.90;;;;;;;4.38;68.04;96394.97;5013883;28;20230;-83
2021/03/24 06:28:33;;;;;;;11.50;8.80;;;;;;;4.48;67.74;96400.16;5012029;28;20230;-82
2021/03/24 06:31:36;;;;;;;11.70;8.67;;;;;;;4.51;67.96;96395.63;5013040;28;20221;-82
2021/03/24 06:34:31;;;;;;;11.57;9.07;;;;;;;4.67;67.64;96396.97;5010674;28;20276;-82
2021/03/24 06:37:27;;;;;;;11.33;9.00;;;;;;;4.80;67.41;96397.66;5013728;28;20272;-85
2021/03/24 06:40:08;;;;;;;25.70;18.83;;;;;;;4.99;66.86;96397.81;5017628;28;20233;-82
2021/03/24 06:42:44;;;;;;;19.87;11.43;;;;;;;5.22;66.05;96406.19;5021166;28;20225;-80
2021/03/24 06:45:47;;;;;;;15.50;9.73;;;;;;;5.37;65.20;96397.31;5018237;28;20222;-82
2021/03/24 06:48:41;;;;;;;12.27;8.77;;;;;;;5.57;65.24;96407.63;5019248;28;20246;-82
2021/03/24 06:51:57;;;;;;;13.63;8.90;;;;;;;5.69;64.37;96402.31;5019138;28;20215;-82
2021/03/24 06:55:03;;;;;;;14.30;9.43;;;;;;;5.79;64.44;96404.91;5014333;28;20219;-84
2021/03/24 06:57:48;;;;;;;12.83;9.43;;;;;;;5.90;64.16;96407.44;5013415;28;20269;-84
2021/03/24 07:00:32;;;;;;;11.90;8.97;;;;;;;6.18;62.64;96405.94;5013944;28;20207;-83
2021/03/24 07:03:37;;;;;;;22.17;17.03;;;;;;;6.45;62.47;96401.03;5013956;28;20222;-83
2021/03/24 07:06:19;;;;;;;14.87;10.70;;;;;;;6.70;61.46;96410.00;4989466;28;20776;-84
2021/03/24 07:08:57;;;;;;;12.37;8.70;;;;;;;6.92;60.95;96409.75;5012871;28;20228;-84
2021/03/24 07:11:41;;;;;;;13.40;8.53;;;;;;;7.08;59.72;96419.47;5013510;28;20231;-84
2021/03/24 07:14:38;;;;;;;12.77;9.00;;;;;;;7.25;59.23;96416.22;5012751;28;20238;-84
2021/03/24 07:17:37;;;;;;;13.17;8.40;;;;;;;7.44;59.28;96423.09;4978233;28;20227;-82
2021/03/24 07:20:47;;;;;;;10.47;8.10;;;;;;;7.55;58.96;96428.06;5008897;28;20295;-82
2021/03/24 07:23:35;;;;;;;12.87;8.17;;;;;;;7.81;58.00;96425.72;5013180;28;20226;-84
2021/03/24 07:26:05;;;;;;;14.13;8.77;;;;;;;7.98;57.54;96422.44;5011293;28;20254;-80
2021/03/24 07:28:47;;;;;;;13.03;10.70;;;;;;;7.90;56.96;96424.06;5013673;28;20309;-84
2021/03/24 07:31:58;;;;;;;15.43;9.83;;;;;;;8.09;56.42;96425.78;5012492;28;20226;-81
2021/03/24 07:34:38;;;;;;;13.50;8.97;;;;;;;8.33;56.87;96426.13;5013125;28;20230;-83
2021/03/24 07:37:35;;;;;;;12.97;8.63;;;;;;;8.63;55.94;96431.00;5010404;28;20763;-84
2021/03/24 07:40:29;;;;;;;11.67;8.30;;;;;;;8.83;55.72;96431.69;5011982;28;20245;-81
2021/03/24 07:43:12;;;;;;;12.23;8.40;;;;;;;9.05;55.92;96425.31;5010633;28;20230;-83
2021/03/24 07:45:59;;;;;;;9.67;8.40;;;;;;;9.09;55.44;96431.78;5012583;28;20373;-84
2021/03/24 07:49:00;;;;;;;9.17;7.70;;;;;;;9.47;55.40;96432.41;5013238;28;20210;-83
2021/03/24 07:52:11;;;;;;;12.93;7.47;;;;;;;9.50;53.88;96427.78;5012195;28;20211;-82
2021/03/24 07:54:44;;;;;;;9.53;7.20;;;;;;;9.76;52.16;96435.53;5008318;28;20210;-83
2021/03/24 07:57:22;;;;;;;10.00;7.10;;;;;;;10.08;51.51;96434.13;4995513;28;20286;-82
2021/03/24 07:59:57;;;;;;;12.03;6.37;;;;;;;10.59;59.76;96431.50;4994894;28;20233;-83
2021/03/24 08:02:35;;;;;;;12.70;6.77;;;;;;;11.12;56.34;96438.09;4992603;28;20222;-83
2021/03/24 08:05:34;;;;;;;;;;;;;;;;;;;;;
2021/03/24 08:08:15;;;;;;;15.17;11.40;;;;;;;11.29;48.57;96431.19;5013154;28;20230;-84
2021/03/24 08:10:57;;;;;;;9.20;7.07;;;;;;;11.37;47.56;96437.13;5014015;28;20318;-84
2021/03/24 08:13:37;;;;;;;10.30;6.73;;;;;;;11.38;47.82;96430.22;5014500;28;20218;-84
2021/03/24 08:16:16;;;;;;;8.43;6.93;;;;;;;11.42;46.95;96428.94;5013986;28;20321;-83
2021/03/24 08:18:57;;;;;;;9.20;7.07;;;;;;;11.52;46.79;96426.22;5013514;28;20260;-85
2021/03/24 08:21:35;;;;;;;8.60;6.57;;;;;;;11.60;46.10;96424.41;5014346;28;20666;-83
2021/03/24 08:24:24;;;;;;;9.17;6.27;;;;;;;11.87;45.80;96425.09;5014432;28;20214;-84
2021/03/24 08:26:57;;;;;;;11.60;6.93;;;;;;;12.03;46.36;96418.09;5013793;28;20249;-83
2021/03/24 08:29:32;;;;;;;9.67;6.90;;;;;;;12.21;46.11;96417.09;5012040;28;20806;-82
2021/03/24 08:32:31;;;;;;;7.90;6.33;;;;;;;12.15;45.09;96410.00;5013919;28;20230;-82
2021/03/24 08:35:37;;;;;;;8.90;6.43;;;;;;;12.29;44.78;96402.41;5013691;28;20230;-82
2021/03/24 08:38:21;;;;;;;7.07;5.57;;;;;;;12.27;43.47;96406.13;5013683;28;20230;-84
2021/03/24 08:41:13;;;;;;;6.37;5.73;;;;;;;12.35;42.86;96406.88;5013229;28;20235;-83
2021/03/24 08:43:49;;;;;;;8.97;6.43;;;;;;;12.33;43.64;96405.41;5013638;28;20230;-82
2021/03/24 08:46:26;;;;;;;7.00;5.60;;;;;;;12.35;43.12;96408.66;5010358;28;20226;-84
2021/03/24 08:48:56;;;;;;;9.40;5.83;;;;;;;12.27;44.42;96404.34;5013710;28;20276;-84
2021/03/24 08:51:49;;;;;;;9.20;5.73;;;;;;;12.38;43.38;96396.22;5014518;28;20233;-82
2021/03/24 08:54:46;;;;;;;10.20;6.00;;;;;;;12.60;43.04;96389.50;5013577;28;20226;-83
2021/03/24 08:57:23;;;;;;;8.00;6.23;;;;;;;12.61;43.15;96388.53;5013735;28;20657;-82
2021/03/24 08:59:51;;;;;;;7.33;5.70;;;;;;;12.66;43.50;96391.41;5013643;28;20638;-84
2021/03/24 09:02:27;;;;;;;10.90;5.60;;;;;;;12.92;42.89;96383.34;5013085;28;20230;-85
2021/03/24 09:05:15;;;;;;;9.63;6.70;;;;;;;12.95;43.13;96392.53;5013253;28;20298;-84
2021/03/24 09:07:55;;;;;;;7.33;5.83;;;;;;;13.06;41.53;96389.56;5012939;28;20306;-84
2021/03/24 09:10:47;;;;;;;10.40;6.27;;;;;;;13.26;41.85;96388.16;5016524;28;20233;-83
2021/03/24 09:13:20;;;;;;;8.50;6.07;;;;;;;13.52;41.14;96387.78;5007974;28;20226;-81
2021/03/24 09:16:17;;;;;;;7.97;5.77;;;;;;;13.64;40.43;96388.19;5017577;28;20233;-85
2021/03/24 09:18:49;;;;;;;9.30;5.80;;;;;;;13.77;40.46;96383.19;5015917;28;20705;-82
2021/03/24 09:21:20;;;;;;;10.97;6.33;;;;;;;13.91;40.95;96385.00;5016696;28;20590;-83
2021/03/24 09:24:15;;;;;;;9.33;6.60;;;;;;;14.01;40.43;96377.78;5016394;28;20257;-85
2021/03/24 09:27:16;;;;;;;10.47;6.27;;;;;;;14.16;39.86;96382.97;5014538;28;20229;-85
2021/03/24 09:30:18;;;;;;;8.33;6.17;;;;;;;14.33;39.13;96386.16;5000132;28;20223;-85
2021/03/24 09:33:11;;;;;;;9.23;6.80;;;;;;;14.45;39.60;96392.50;5014227;28;20227;-84
2021/03/24 09:35:45;;;;;;;7.73;6.30;;;;;;;14.64;40.21;96388.56;5010863;28;20218;-84
2021/03/24 09:38:20;;;;;;;10.33;7.10;;;;;;;14.59;39.81;96388.31;5014288;28;20919;-85
2021/03/24 09:41:29;;;;;;;9.50;7.13;;;;;;;14.73;40.11;96383.09;5019504;28;20676;-83
2021/03/24 09:44:01;;;;;;;12.53;6.87;;;;;;;14.78;38.81;96380.78;5015809;28;20242;-83
2021/03/24 09:46:47;;;;;;;7.63;6.83;;;;;;;14.85;38.74;96379.03;5023301;22;20664;-84
2021/03/24 09:49:20;;;;;;;9.20;7.10;;;;;;;14.76;38.60;96381.94;5014832;28;20240;-85
2021/03/24 09:51:53;;;;;;;9.87;7.20;;;;;;;14.65;37.88;96380.59;5014836;28;20202;-85
2021/03/24 09:54:26;;;;;;;11.30;9.60;;;;;;;14.47;38.34;96368.03;5014893;28;20233;-86
2021/03/24 09:57:07;;;;;;;9.00;7.37;;;;;;;14.37;38.69;96367.50;5047850;22;20941;-83
2021/03/24 09:59:42;;;;;;;13.67;7.77;;;;;;;14.65;38.75;96365.03;5015535;28;20254;-86
2021/03/24 10:02:39;;;;;;;12.97;7.33;;;;;;;14.62;38.42;96362.84;5021614;28;20236;-85
2021/03/24 10:05:08;;;;;;;9.53;6.93;;;;;;;14.62;37.89;96357.66;5006428;22;20232;-83
2021/03/24 10:07:42;;;;;;;10.33;7.77;;;;;;;14.76;38.05;96351.63;5021579;28;20760;-83
2021/03/24 10:10:15;;;;;;;12.17;7.87;;;;;;;14.80;38.06;96352.88;5028531;28;20300;-85
2021/03/24 10:12:48;;;;;;;11.97;7.97;;;;;;;14.97;38.40;96348.25;5031343;28;20255;-85
2021/03/24 10:15:25;;;;;;;7.93;7.17;;;;;;;14.85;37.81;96350.50;5031446;28;20234;-86
2021/03/24 10:17:54;;;;;;;11.30;7.10;;;;;;;14.89;38.09;96345.75;5032456;28;20225;-86
2021/03/24 10:20:26;;;;;;;10.20;7.10;;;;;;;15.04;38.42;96341.31;5031342;28;20227;-86
2021/03/24 10:22:56;;;;;;;9.33;6.90;;;;;;;15.10;37.58;96340.59;5032133;28;20234;-86
2021/03/24 10:25:30;;;;;;;7.70;6.90;;;;;;;15.19;38.09;96339.47;5032163;28;20230;-86
2021/03/24 10:28:04;;;;;;;13.20;7.53;;;;;;;15.31;37.83;96339.78;5032511;28;20271;-84
2021/03/24 10:30:43;;;;;;;9.93;6.57;;;;;;;15.34;37.62;96333.41;5032101;28;20878;-86
2021/03/24 10:33:25;;;;;;;19.47;16.77;;;;;;;15.24;37.66;96331.13;5032916;28;20670;-86
2021/03/24 10:36:05;;;;;;;9.33;8.00;;;;;;;15.05;37.39;96331.75;5026684;28;20280;-86
2021/03/24 10:38:47;;;;;;;10.60;7.90;;;;;;;14.76;37.92;96327.50;5023905;28;20213;-85
2021/03/24 10:41:26;;;;;;;12.03;7.30;;;;;;;14.85;38.35;96328.97;5030645;28;20245;-85
2021/03/24 10:44:02;;;;;;;8.27;6.77;;;;;;;15.04;39.01;96324.94;5031696;28;20225;-87
2021/03/24 10:46:36;;;;;;;12.07;7.67;;;;;;;15.19;38.88;96326.50;5030793;28;20225;-86
2021/03/24 10:49:08;;;;;;;7.97;6.67;;;;;;;15.12;38.61;96317.06;5031532;28;20230;-86
2021/03/24 10:51:47;;;;;;;10.93;7.77;;;;;;;15.27;39.27;96312.59;5030409;28;20289;-85
2021/03/24 10:54:19;;;;;;;9.57;7.47;;;;;;;15.41;38.81;96311.69;5032399;28;20581;-84
2021/03/24 10:57:24;;;;;;;11.83;7.60;;;;;;;15.46;38.64;96308.53;5031093;28;20600;-85
2021/03/24 11:00:01;;;;;;;10.80;6.80;;;;;;;15.56;38.02;96303.84;5000951;28;20222;-86
2021/03/24 11:02:32;;;;;;;8.50;7.40;;;;;;;15.41;37.45;96308.28;5015463;28;20219;-87
2021/03/24 11:05:06;;;;;;;9.47;8.30;;;;;;;14.87;37.80;96308.84;5015086;28;20236;-83
2021/03/24 11:07:42;;;;;;;11.47;6.77;;;;;;;14.89;39.28;96303.47;5015334;28;20226;-85
2021/03/24 11:10:33;;;;;;;8.57;6.97;;;;;;;14.96;39.05;96307.75;5032573;28;20253;-84
2021/03/24 11:13:02;;;;;;;10.80;7.70;;;;;;;14.95;38.31;96300.94;5024475;28;20230;-84
2021/03/24 11:15:47;;;;;;;8.37;7.27;;;;;;;14.98;37.55;96303.19;5032477;28;20230;-82
2021/03/24 11:18:19;;;;;;;9.47;6.87;;;;;;;15.09;38.50;96301.84;5030819;28;20281;-85
2021/03/24 11:20:47;;;;;;;10.80;6.93;;;;;;;15.16;37.97;96290.56;5032314;28;20724;-84
2021/03/24 11:23:23;;;;;;;10.23;6.93;;;;;;;15.19;37.60;96297.16;5018651;28;20300;-83
2021/03/24 11:25:56;;;;;;;8.67;6.97;;;;;;;15.25;37.68;96295.59;5012827;28;20373;-83
2021/03/24 11:28:31;;;;;;;10.50;7.67;;;;;;;15.30;37.82;96293.25;5030434;28;20892;-86
2021/03/24 11:31:05;;;;;;;9.10;7.50;;;;;;;15.34;37.30;96286.69;5031469;28;20238;-85
2021/03/24 11:33:40;;;;;;;24.53;21.23;;;;;;;15.40;37.53;96284.13;5028670;28;20210;-84
2021/03/24 11:36:16;;;;;;;10.33;7.37;;;;;;;15.32;36.82;96286.88;5032731;28;20279;-85
2021/03/24 11:38:49;;;;;;;7.87;6.63;;;;;;;15.35;36.91;96275.34;5017420;28;20309;-84
2021/03/24 11:41:24;;;;;;;8.37;7.20;;;;;;;15.13;36.70;96274.56;5031116;28;20870;-82
2021/03/24 11:43:57;;;;;;;7.43;6.63;;;;;;;15.06;37.54;96263.31;5015914;28;20217;-85
2021/03/24 11:46:31;;;;;;;11.10;6.27;;;;;;;15.16;38.58;96263.81;5030671;28;20237;-85
2021/03/24 11:49:25;;;;;;;9.80;6.50;;;;;;;15.17;38.15;96260.25;5011637;28;20713;-84
2021/03/24 11:52:11;;;;;;;9.80;6.37;;;;;;;15.31;38.21;96256.75;5039815;28;20240;-84
2021/03/24 11:55:00;;;;;;;8.47;6.00;;;;;;;15.42;37.19;96258.00;5028113;28;20252;-83
2021/03/24 11:57:50;;;;;;;6.70;6.00;;;;;;;15.44;36.68;96250.81;5032258;28;20202;-82
2021/03/24 12:00:32;;;;;;;63.77;49.53;;;;;;;15.57;37.70;96247.56;5030653;28;20229;-85
2021/03/24 12:03:11;;;;;;;10.77;9.07;;;;;;;15.63;38.02;96241.56;5000150;28;20223;-83
2021/03/24 12:05:43;;;;;;;9.57;6.13;;;;;;;15.61;36.34;96236.56;5020002;28;20229;-86
2021/03/24 12:08:37;;;;;;;6.33;5.73;;;;;;;15.64;36.57;96238.78;5030518;28;20364;-84
2021/03/24 12:11:15;;;;;;;6.50;5.50;;;;;;;15.80;36.17;96232.47;5014983;28;20230;-82
2021/03/24 12:13:41;;;;;;;7.67;5.30;;;;;;;15.86;35.04;96229.91;5011612;28;20277;-85
2021/03/24 12:16:11;;;;;;;8.47;5.40;;;;;;;15.79;35.60;96223.09;5023698;28;20230;-85